createdAt,value
2019-04-27T00:00:03.702Z,99.99
2019-04-27T00:01:05.073Z,99.99
2019-04-27T00:02:01.734Z,99.99
2019-04-27T00:03:05.967Z,99.99
2019-04-27T00:04:01.810Z,99.99
2019-04-27T00:05:03.242Z,99.99
2019-04-27T00:06:05.258Z,99.99
2019-04-27T00:07:02.948Z,99.99
2019-04-27T00:08:02.924Z,99.99
2019-04-27T00:09:03.347Z,99.99
2019-04-27T00:10:03.465Z,99.99
2019-04-27T00:11:04.932Z,99.99
2019-04-27T00:12:03.456Z,99.99
2019-04-27T00:13:06.726Z,99.99
2019-04-27T00:14:01.774Z,99.99
2019-04-27T00:15:03.290Z,99.99
2019-04-27T00:16:03.985Z,99.99
2019-04-27T00:17:03.738Z,99.99
2019-04-27T00:18:03.480Z,99.99
2019-04-27T00:19:01.749Z,99.99
2019-04-27T00:20:03.788Z,99.99
2019-04-27T00:21:03.380Z,99.99
2019-04-27T00:22:03.126Z,99.99
2019-04-27T00:23:03.211Z,99.99
2019-04-27T00:24:03.274Z,99.99
2019-04-27T00:25:03.446Z,99.99
2019-04-27T00:26:03.124Z,99.99
2019-04-27T00:27:03.217Z,99.99
2019-04-27T00:28:01.753Z,99.99
2019-04-27T00:29:01.797Z,99.99
2019-04-27T00:30:03.609Z,99.99
2019-04-27T00:31:03.286Z,99.99
2019-04-27T00:32:01.852Z,99.99
2019-04-27T00:33:03.012Z,99.99
2019-04-27T00:34:03.365Z,99.99
2019-04-27T00:35:03.425Z,99.99
2019-04-27T00:36:03.013Z,99.99
2019-04-27T00:37:03.500Z,99.99
2019-04-27T00:38:03.114Z,99.99
2019-04-27T00:39:01.760Z,99.99
2019-04-27T00:40:03.289Z,99.99
2019-04-27T00:41:02.917Z,99.99
2019-04-27T00:42:03.275Z,99.99
2019-04-27T00:43:02.973Z,99.99
2019-04-27T00:44:03.368Z,99.99
2019-04-27T00:45:02.945Z,99.99
2019-04-27T00:46:01.760Z,99.99
2019-04-27T00:47:03.554Z,99.99
2019-04-27T00:48:03.483Z,99.99
2019-04-27T00:49:03.480Z,99.99
2019-04-27T00:50:03.422Z,99.99
2019-04-27T00:51:01.939Z,99.99
2019-04-27T00:52:01.769Z,99.99
2019-04-27T00:53:03.383Z,99.99
2019-04-27T00:54:01.794Z,99.99
2019-04-27T00:55:03.123Z,99.99
2019-04-27T00:56:01.866Z,99.99
2019-04-27T00:57:03.176Z,99.99
2019-04-27T00:58:01.799Z,99.99
2019-04-27T00:59:03.156Z,99.99
2019-04-27T01:00:03.109Z,99.99
2019-04-27T01:01:01.845Z,99.99
2019-04-27T01:02:03.330Z,99.99
2019-04-27T01:03:03.632Z,99.99
2019-04-27T01:04:03.713Z,99.99
2019-04-27T01:05:01.837Z,99.99
2019-04-27T01:06:03.206Z,99.99
2019-04-27T01:07:02.901Z,99.99
2019-04-27T01:08:03.608Z,99.99
2019-04-27T01:09:03.299Z,99.99
2019-04-27T01:10:02.955Z,99.99
2019-04-27T01:11:02.900Z,99.99
2019-04-27T01:12:03.166Z,99.99
2019-04-27T01:13:03.263Z,99.99
2019-04-27T01:14:03.398Z,99.99
2019-04-27T01:15:03.466Z,99.99
2019-04-27T01:16:01.823Z,99.99
2019-04-27T01:17:02.548Z,99.99
2019-04-27T01:18:15.578Z,99.99
2019-04-27T01:19:01.920Z,99.99
2019-04-27T01:20:02.914Z,99.99
2019-04-27T01:21:01.834Z,99.99
2019-04-27T01:22:01.821Z,99.99
2019-04-27T01:23:02.118Z,99.99
2019-04-27T01:24:01.816Z,99.99
2019-04-27T01:25:02.073Z,99.99
2019-04-27T01:26:02.400Z,99.99
2019-04-27T01:27:02.779Z,99.99
2019-04-27T01:28:02.419Z,99.99
2019-04-27T01:29:02.098Z,99.99
2019-04-27T01:30:01.900Z,99.99
2019-04-27T01:31:03.277Z,99.99
2019-04-27T01:32:02.241Z,99.99
2019-04-27T01:33:02.272Z,99.99
2019-04-27T01:34:01.879Z,99.99
2019-04-27T01:35:02.200Z,99.99
2019-04-27T01:36:01.881Z,99.99
2019-04-27T01:37:02.477Z,99.99
2019-04-27T01:38:01.887Z,99.99
2019-04-27T01:39:02.304Z,99.99
2019-04-27T01:40:01.840Z,99.99
2019-04-27T01:41:03.340Z,99.99
2019-04-27T01:42:01.862Z,99.99
2019-04-27T01:43:01.906Z,99.99
2019-04-27T01:44:02.013Z,99.99
2019-04-27T01:45:02.137Z,99.99
2019-04-27T01:46:03.782Z,99.99
2019-04-27T01:47:02.606Z,99.99
2019-04-27T01:48:02.268Z,99.99
2019-04-27T01:49:01.898Z,99.99
2019-04-27T01:50:01.901Z,99.99
2019-04-27T01:51:02.082Z,99.99
2019-04-27T01:52:02.162Z,99.99
2019-04-27T01:53:02.295Z,99.99
2019-04-27T01:54:02.163Z,99.99
2019-04-27T01:55:02.185Z,99.99
2019-04-27T01:56:01.944Z,99.99
2019-04-27T01:57:04.241Z,99.99
2019-04-27T01:58:01.900Z,99.99
2019-04-27T01:59:02.234Z,99.99
2019-04-27T02:00:01.900Z,99.99
2019-04-27T02:01:02.223Z,99.99
2019-04-27T02:02:02.379Z,99.99
2019-04-27T02:03:02.175Z,99.99
2019-04-27T02:04:02.332Z,99.99
2019-04-27T02:05:04.279Z,99.99
2019-04-27T02:06:02.070Z,99.99
2019-04-27T02:07:01.997Z,99.99
2019-04-27T02:08:02.132Z,99.99
2019-04-27T02:09:02.254Z,99.99
2019-04-27T02:10:01.937Z,99.99
2019-04-27T02:11:02.131Z,99.99
2019-04-27T02:12:02.052Z,99.99
2019-04-27T02:13:02.063Z,99.99
2019-04-27T02:14:02.128Z,99.99
2019-04-27T02:15:01.889Z,99.99
2019-04-27T02:16:02.077Z,99.99
2019-04-27T02:17:02.191Z,99.99
2019-04-27T02:18:02.447Z,99.99
2019-04-27T02:19:01.962Z,99.99
2019-04-27T02:20:02.190Z,99.99
2019-04-27T02:21:01.972Z,99.99
2019-04-27T02:22:02.490Z,99.99
2019-04-27T02:23:01.943Z,99.99
2019-04-27T02:24:02.525Z,99.99
2019-04-27T02:25:01.944Z,99.99
2019-04-27T02:26:01.944Z,99.99
2019-04-27T02:27:01.929Z,99.99
2019-04-27T02:28:01.993Z,99.99
2019-04-27T02:29:01.968Z,99.99
2019-04-27T02:30:01.956Z,99.99
2019-04-27T02:31:04.562Z,99.99
2019-04-27T02:32:05.448Z,99.99
2019-04-27T02:33:01.976Z,99.99
2019-04-27T02:34:02.260Z,99.99
2019-04-27T02:35:03.007Z,99.99
2019-04-27T02:36:03.035Z,99.99
2019-04-27T02:37:05.249Z,99.99
2019-04-27T02:38:03.135Z,99.99
2019-04-27T02:39:02.378Z,99.99
2019-04-27T02:40:02.761Z,99.99
2019-04-27T02:41:02.643Z,99.99
2019-04-27T02:42:02.956Z,99.99
2019-04-27T02:43:02.735Z,99.99
2019-04-27T02:44:04.382Z,99.99
2019-04-27T02:45:02.544Z,99.99
2019-04-27T02:46:03.181Z,99.99
2019-04-27T02:47:03.110Z,99.99
2019-04-27T02:48:02.606Z,99.99
2019-04-27T02:49:10.443Z,99.99
2019-04-27T02:50:03.378Z,99.99
2019-04-27T02:51:02.625Z,99.99
2019-04-27T02:52:02.629Z,99.99
2019-04-27T02:53:03.285Z,99.99
2019-04-27T02:54:02.943Z,99.99
2019-04-27T02:55:02.103Z,99.99
2019-04-27T02:56:02.388Z,99.99
2019-04-27T02:57:02.294Z,99.99
2019-04-27T02:58:02.707Z,99.99
2019-04-27T02:59:02.567Z,99.99
2019-04-27T03:00:02.893Z,99.99
2019-04-27T03:01:02.136Z,99.99
2019-04-27T03:02:03.511Z,99.99
2019-04-27T03:03:04.915Z,99.99
2019-04-27T03:04:02.993Z,99.99
2019-04-27T03:05:03.350Z,99.99
2019-04-27T03:06:02.511Z,99.99
2019-04-27T03:07:02.999Z,99.99
2019-04-27T03:08:02.632Z,99.99
2019-04-27T03:09:03.193Z,99.99
2019-04-27T03:10:04.959Z,99.99
2019-04-27T03:11:03.901Z,99.99
2019-04-27T03:12:02.295Z,99.99
2019-04-27T03:13:02.812Z,99.99
2019-04-27T03:14:02.624Z,99.99
2019-04-27T03:15:02.589Z,99.99
2019-04-27T03:16:03.133Z,99.99
2019-04-27T03:17:02.986Z,99.99
2019-04-27T03:18:02.407Z,99.99
2019-04-27T03:19:20.921Z,99.99
2019-04-27T03:20:02.539Z,99.99
2019-04-27T03:21:03.104Z,99.99
2019-04-27T03:22:02.180Z,99.99
2019-04-27T03:23:02.761Z,99.99
2019-04-27T03:24:02.922Z,99.99
2019-04-27T03:25:02.837Z,99.99
2019-04-27T03:26:03.052Z,99.99
2019-04-27T03:27:03.243Z,99.99
2019-04-27T03:28:04.839Z,99.99
2019-04-27T03:29:02.858Z,99.99
2019-04-27T03:30:02.534Z,99.99
2019-04-27T03:31:05.397Z,99.99
2019-04-27T03:32:04.746Z,99.99
2019-04-27T03:33:05.942Z,99.99
2019-04-27T03:34:11.798Z,99.99
2019-04-27T03:35:05.869Z,99.99
2019-04-27T03:36:05.512Z,99.99
2019-04-27T03:37:02.604Z,99.99
2019-04-27T03:38:04.402Z,99.99
2019-04-27T03:39:02.750Z,99.99
2019-04-27T03:40:02.937Z,99.99
2019-04-27T03:41:03.249Z,99.99
2019-04-27T03:42:02.883Z,99.99
2019-04-27T03:43:02.597Z,99.99
2019-04-27T03:44:03.265Z,99.99
2019-04-27T03:45:03.343Z,99.99
2019-04-27T03:46:03.173Z,99.99
2019-04-27T03:47:02.290Z,99.99
2019-04-27T03:48:03.116Z,99.99
2019-04-27T03:49:02.802Z,99.99
2019-04-27T03:50:02.904Z,99.99
2019-04-27T03:51:02.316Z,99.99
2019-04-27T03:52:05.334Z,99.99
2019-04-27T03:53:02.725Z,99.99
2019-04-27T03:54:03.158Z,99.99
2019-04-27T03:55:02.773Z,99.99
2019-04-27T03:56:02.763Z,99.99
2019-04-27T03:57:05.120Z,99.99
2019-04-27T03:58:03.665Z,99.99
2019-04-27T03:59:02.485Z,99.99
2019-04-27T04:00:02.645Z,99.99
2019-04-27T04:01:02.774Z,99.99
2019-04-27T04:02:05.136Z,99.99
2019-04-27T04:03:03.299Z,99.99
2019-04-27T04:04:02.671Z,99.99
2019-04-27T04:05:02.574Z,99.99
2019-04-27T04:06:03.036Z,99.99
2019-04-27T04:07:02.343Z,99.99
2019-04-27T04:08:03.145Z,99.99
2019-04-27T04:09:03.011Z,99.99
2019-04-27T04:10:03.019Z,99.99
2019-04-27T04:11:02.329Z,99.99
2019-04-27T04:12:04.977Z,99.99
2019-04-27T04:13:04.148Z,99.99
2019-04-27T04:14:04.135Z,99.99
2019-04-27T04:15:02.874Z,99.99
2019-04-27T04:16:03.065Z,99.99
2019-04-27T04:17:05.427Z,99.99
2019-04-27T04:18:02.280Z,99.99
2019-04-27T04:19:03.613Z,99.99
2019-04-27T04:20:04.175Z,99.99
2019-04-27T04:21:03.139Z,99.99
2019-04-27T04:22:02.706Z,99.99
2019-04-27T04:23:05.543Z,99.99
2019-04-27T04:24:03.786Z,99.99
2019-04-27T04:25:02.710Z,99.99
2019-04-27T04:26:02.592Z,99.99
2019-04-27T04:27:02.885Z,99.99
2019-04-27T04:28:03.298Z,99.99
2019-04-27T04:29:02.663Z,99.99
2019-04-27T04:30:02.253Z,99.99
2019-04-27T04:31:03.243Z,99.99
2019-04-27T04:32:03.206Z,99.99
2019-04-27T04:33:02.693Z,99.99
2019-04-27T04:34:03.874Z,99.99
2019-04-27T04:35:04.094Z,99.99
2019-04-27T04:36:02.727Z,99.99
2019-04-27T04:37:03.156Z,99.99
2019-04-27T04:38:02.996Z,99.99
2019-04-27T04:39:03.226Z,99.99
2019-04-27T04:40:02.497Z,99.99
2019-04-27T04:41:02.193Z,99.99
2019-04-27T04:42:02.634Z,99.99
2019-04-27T04:43:05.592Z,99.99
2019-04-27T04:44:05.342Z,99.99
2019-04-27T04:45:04.777Z,99.99
2019-04-27T04:46:04.819Z,99.99
2019-04-27T04:47:03.149Z,99.99
2019-04-27T04:48:02.396Z,99.99
2019-04-27T04:49:02.938Z,99.99
2019-04-27T04:50:15.072Z,99.99
2019-04-27T04:51:02.751Z,99.99
2019-04-27T04:52:02.405Z,99.99
2019-04-27T04:53:02.657Z,99.99
2019-04-27T04:54:02.566Z,99.99
2019-04-27T04:55:05.194Z,99.99
2019-04-27T04:56:03.071Z,99.99
2019-04-27T04:57:02.236Z,99.99
2019-04-27T04:58:03.575Z,99.99
2019-04-27T04:59:02.779Z,99.99
2019-04-27T05:00:02.176Z,99.99
2019-04-27T05:01:04.577Z,99.99
2019-04-27T05:02:04.896Z,99.99
2019-04-27T05:03:02.320Z,99.99
2019-04-27T05:04:02.180Z,99.99
2019-04-27T05:05:02.205Z,99.99
2019-04-27T05:06:02.172Z,99.99
2019-04-27T05:07:02.748Z,99.99
2019-04-27T05:08:03.416Z,99.99
2019-04-27T05:09:02.267Z,99.99
2019-04-27T05:10:02.172Z,99.99
2019-04-27T05:11:02.407Z,99.99
2019-04-27T05:12:02.235Z,99.99
2019-04-27T05:13:02.274Z,99.99
2019-04-27T05:14:04.231Z,99.99
2019-04-27T05:15:02.224Z,99.99
2019-04-27T05:16:02.535Z,99.99
2019-04-27T05:17:02.242Z,99.99
2019-04-27T05:18:02.393Z,99.99
2019-04-27T05:19:02.251Z,99.99
2019-04-27T05:20:02.236Z,99.99
2019-04-27T05:21:02.241Z,99.99
2019-04-27T05:22:02.268Z,99.99
2019-04-27T05:23:02.224Z,99.99
2019-04-27T05:24:03.475Z,99.99
2019-04-27T05:25:02.220Z,99.99
2019-04-27T05:26:02.397Z,99.99
2019-04-27T05:27:02.224Z,99.99
2019-04-27T05:28:02.373Z,99.99
2019-04-27T05:29:02.215Z,99.99
2019-04-27T05:30:02.867Z,99.99
2019-04-27T05:31:03.278Z,99.99
2019-04-27T05:32:02.298Z,99.99
2019-04-27T05:33:02.221Z,99.99
2019-04-27T05:34:02.226Z,99.99
2019-04-27T05:35:02.383Z,99.99
2019-04-27T05:36:02.218Z,99.99
2019-04-27T05:37:03.782Z,99.99
2019-04-27T05:38:12.895Z,99.99
2019-04-27T05:39:02.443Z,99.99
2019-04-27T05:40:02.223Z,99.99
2019-04-27T05:41:02.272Z,99.99
2019-04-27T05:42:02.553Z,99.99
2019-04-27T05:43:02.408Z,99.99
2019-04-27T05:44:07.524Z,99.99
2019-04-27T05:45:02.501Z,99.99
2019-04-27T05:46:03.822Z,99.99
2019-04-27T05:47:05.255Z,99.99
2019-04-27T05:48:03.484Z,99.99
2019-04-27T05:49:09.515Z,99.99
2019-04-27T05:50:02.351Z,99.99
2019-04-27T05:51:09.170Z,99.99
2019-04-27T05:52:02.938Z,99.99
2019-04-27T05:53:02.955Z,99.99
2019-04-27T05:54:08.892Z,99.99
2019-04-27T05:55:02.307Z,99.99
2019-04-27T05:56:02.990Z,99.99
2019-04-27T05:57:02.241Z,99.99
2019-04-27T05:58:02.240Z,99.99
2019-04-27T05:59:03.084Z,99.99
2019-04-27T06:00:05.702Z,99.99
2019-04-27T06:01:02.450Z,99.99
2019-04-27T06:02:02.327Z,99.99
2019-04-27T06:03:13.989Z,99.99
2019-04-27T06:04:02.281Z,99.99
2019-04-27T06:05:02.944Z,99.99
2019-04-27T06:06:04.428Z,99.99
2019-04-27T06:07:04.309Z,99.99
2019-04-27T06:08:04.250Z,99.99
2019-04-27T06:09:03.974Z,99.99
2019-04-27T06:10:03.159Z,99.99
2019-04-27T06:11:03.245Z,99.99
2019-04-27T06:12:03.359Z,99.99
2019-04-27T06:13:04.614Z,99.99
2019-04-27T06:14:05.822Z,99.99
2019-04-27T06:15:03.025Z,99.99
2019-04-27T06:16:03.337Z,99.99
2019-04-27T06:17:03.277Z,99.99
2019-04-27T06:18:03.305Z,99.99
2019-04-27T06:19:02.949Z,99.99
2019-04-27T06:20:03.130Z,99.99
2019-04-27T06:21:02.527Z,99.99
2019-04-27T06:22:04.070Z,99.99
2019-04-27T06:23:02.843Z,99.99
2019-04-27T06:24:02.966Z,99.99
2019-04-27T06:25:03.331Z,99.99
2019-04-27T06:26:05.223Z,99.99
2019-04-27T06:27:03.242Z,99.99
2019-04-27T06:28:03.948Z,99.99
2019-04-27T06:29:02.960Z,99.99
2019-04-27T06:30:04.757Z,99.99
2019-04-27T06:31:02.303Z,99.99
2019-04-27T06:32:02.395Z,99.99
2019-04-27T06:33:02.343Z,99.99
2019-04-27T06:34:02.521Z,99.99
2019-04-27T06:35:20.843Z,99.99
2019-04-27T06:36:05.246Z,99.99
2019-04-27T06:37:02.800Z,99.99
2019-04-27T06:38:03.264Z,99.99
2019-04-27T06:39:02.604Z,99.99
2019-04-27T06:40:02.611Z,99.99
2019-04-27T06:41:04.734Z,99.99
2019-04-27T06:42:15.923Z,99.99
2019-04-27T06:43:02.426Z,99.99
2019-04-27T06:44:13.779Z,99.99
2019-04-27T06:45:03.834Z,99.99
2019-04-27T06:46:02.329Z,99.99
2019-04-27T06:47:02.563Z,99.99
2019-04-27T06:48:02.476Z,99.99
2019-04-27T06:49:02.470Z,99.99
2019-04-27T06:50:02.491Z,99.99
2019-04-27T06:51:06.215Z,99.99
2019-04-27T06:52:02.488Z,99.99
2019-04-27T06:53:02.855Z,99.99
2019-04-27T06:54:02.560Z,99.99
2019-04-27T06:55:06.188Z,99.99
2019-04-27T06:56:02.800Z,99.99
2019-04-27T06:57:02.481Z,99.99
2019-04-27T06:58:02.398Z,99.99
2019-04-27T06:59:02.616Z,99.99
2019-04-27T07:00:02.386Z,99.99
2019-04-27T07:01:02.760Z,99.99
2019-04-27T07:02:03.599Z,99.99
2019-04-27T07:03:02.682Z,99.99
2019-04-27T07:04:02.504Z,99.99
2019-04-27T07:05:02.444Z,99.99
2019-04-27T07:06:02.420Z,99.99
2019-04-27T07:07:04.712Z,99.99
2019-04-27T07:08:02.370Z,99.99
2019-04-27T07:09:02.843Z,99.99
2019-04-27T07:10:02.602Z,99.99
2019-04-27T07:11:02.713Z,99.99
2019-04-27T07:12:02.432Z,99.99
2019-04-27T07:13:03.214Z,99.99
2019-04-27T07:14:14.019Z,99.99
2019-04-27T07:15:04.623Z,99.99
2019-04-27T07:16:04.285Z,99.99
2019-04-27T07:17:02.428Z,99.99
2019-04-27T07:18:02.373Z,99.99
2019-04-27T07:19:02.383Z,99.99
2019-04-27T07:20:02.426Z,99.99
2019-04-27T07:21:15.955Z,99.99
2019-04-27T07:22:02.424Z,99.99
2019-04-27T07:23:02.409Z,99.99
2019-04-27T07:24:04.588Z,99.99
2019-04-27T07:25:03.116Z,99.99
2019-04-27T07:26:02.631Z,99.99
2019-04-27T07:27:03.050Z,99.99
2019-04-27T07:28:02.375Z,99.99
2019-04-27T07:29:04.000Z,99.99
2019-04-27T07:30:15.313Z,99.99
2019-04-27T07:31:02.524Z,99.99
2019-04-27T07:32:03.692Z,99.99
2019-04-27T07:33:03.134Z,99.99
2019-04-27T07:34:02.478Z,99.99
2019-04-27T07:35:15.273Z,99.99
2019-04-27T07:36:04.333Z,99.99
2019-04-27T07:37:02.686Z,99.99
2019-04-27T07:38:02.428Z,99.99
2019-04-27T07:39:03.970Z,99.99
2019-04-27T07:40:02.770Z,99.99
2019-04-27T07:41:04.330Z,99.99
2019-04-27T07:42:02.496Z,99.99
2019-04-27T07:43:02.566Z,99.99
2019-04-27T07:44:19.848Z,99.99
2019-04-27T07:45:04.622Z,99.99
2019-04-27T07:46:03.064Z,99.99
2019-04-27T07:47:02.844Z,99.99
2019-04-27T07:48:02.487Z,99.99
2019-04-27T07:49:02.699Z,99.99
2019-04-27T07:50:05.273Z,99.99
2019-04-27T07:51:02.400Z,99.99
2019-04-27T07:52:02.652Z,99.99
2019-04-27T07:53:02.511Z,99.99
2019-04-27T07:54:03.337Z,99.99
2019-04-27T07:55:03.063Z,99.99
2019-04-27T07:56:03.494Z,99.99
2019-04-27T07:57:02.620Z,99.99
2019-04-27T07:58:05.038Z,99.99
2019-04-27T07:59:03.166Z,99.99
2019-04-27T08:00:03.196Z,99.99
2019-04-27T08:01:02.440Z,99.99
2019-04-27T08:02:02.883Z,99.99
2019-04-27T08:03:04.625Z,99.99
2019-04-27T08:04:02.461Z,99.99
2019-04-27T08:05:02.453Z,99.99
2019-04-27T08:06:10.821Z,99.99
2019-04-27T08:07:02.515Z,99.99
2019-04-27T08:08:02.919Z,99.99
2019-04-27T08:09:02.642Z,99.99
2019-04-27T08:10:04.385Z,99.24
2019-04-27T08:11:02.492Z,98.09
2019-04-27T08:12:02.487Z,97.9
2019-04-27T08:13:02.651Z,96.94
2019-04-27T08:15:03.405Z,96.47
2019-04-27T08:16:02.593Z,96.18
2019-04-27T08:17:54.697Z,95.12
2019-04-27T08:18:08.974Z,94.12
2019-04-27T08:19:09.715Z,91.82
2019-04-27T08:20:09.189Z,91.1
2019-04-27T08:21:08.919Z,90.53
2019-04-27T08:22:09.208Z,90.28
2019-04-27T08:23:09.604Z,88.84
2019-04-27T08:24:29.438Z,88.56
2019-04-27T08:25:09.414Z,88.02
2019-04-27T08:26:08.748Z,87.26
2019-04-27T08:27:09.398Z,86.25
2019-04-27T08:28:08.537Z,86.78
2019-04-27T08:29:09.767Z,87.01
2019-04-27T08:30:21.686Z,85.53
2019-04-27T08:31:08.876Z,86.68
2019-04-27T08:32:09.674Z,86.78
2019-04-27T08:33:09.180Z,86.82
2019-04-27T08:34:08.529Z,85.77
2019-04-27T08:35:09.334Z,85.96
2019-04-27T08:36:08.967Z,86.58
2019-04-27T08:37:09.085Z,86.19
2019-04-27T08:38:11.626Z,86.19
2019-04-27T08:39:08.852Z,85.14
2019-04-27T08:40:09.290Z,84.03
2019-04-27T08:41:09.021Z,84.89
2019-04-27T08:42:15.135Z,85.67
2019-04-27T08:43:09.772Z,85.67
2019-04-27T08:45:09.349Z,83.41
2019-04-27T08:46:08.803Z,83.41
2019-04-27T08:47:09.540Z,82.35
2019-04-27T08:48:09.272Z,83.03
2019-04-27T08:49:10.087Z,82.74
2019-04-27T08:50:09.162Z,82.93
2019-04-27T08:51:09.527Z,83.7
2019-04-27T08:52:09.341Z,82.4
2019-04-27T08:53:09.806Z,80.91
2019-04-27T08:54:09.157Z,81.49
2019-04-27T08:55:09.326Z,81.68
2019-04-27T08:56:09.330Z,80.19
2019-04-27T08:57:09.517Z,80.28
2019-04-27T08:58:07.784Z,79.32
2019-04-27T08:59:09.095Z,79.65
2019-04-27T09:00:09.393Z,80.8
2019-04-27T09:01:12.229Z,80.36
2019-04-27T09:02:08.737Z,79.21
2019-04-27T09:03:09.418Z,78.53
2019-04-27T09:04:09.148Z,78.83
2019-04-27T09:05:09.501Z,78.44
2019-04-27T09:06:09.107Z,77.76
2019-04-27T09:07:08.783Z,77.38
2019-04-27T09:08:08.693Z,76.56
2019-04-27T09:09:09.459Z,77.33
2019-04-27T09:10:08.628Z,76.65
2019-04-27T09:11:08.866Z,76.9
2019-04-27T09:12:09.410Z,76.81
2019-04-27T09:13:08.844Z,77.67
2019-04-27T09:15:07.797Z,78.59
2019-04-27T09:16:09.249Z,78.21
2019-04-27T09:17:09.392Z,78.11
2019-04-27T09:18:08.980Z,77.83
2019-04-27T09:19:08.796Z,77.92
2019-04-27T09:20:09.379Z,77.58
2019-04-27T09:21:08.750Z,76.32
2019-04-27T09:22:19.239Z,76.23
2019-04-27T09:23:09.631Z,76.75
2019-04-27T09:24:09.326Z,76.4
2019-04-27T09:25:09.375Z,75.19
2019-04-27T09:26:09.508Z,74.22
2019-04-27T09:27:09.561Z,73.3
2019-04-27T09:28:08.729Z,72.81
2019-04-27T09:29:08.687Z,72.24
2019-04-27T09:30:08.350Z,72.65
2019-04-27T09:31:09.181Z,73.07
2019-04-27T09:32:08.861Z,73.74
2019-04-27T09:33:07.847Z,73.32
2019-04-27T09:34:08.270Z,73.61
2019-04-27T09:35:08.848Z,73.77
2019-04-27T09:36:08.794Z,74.25
2019-04-27T09:37:08.757Z,75.65
2019-04-27T09:38:09.701Z,76.52
2019-04-27T09:39:11.371Z,77.34
2019-04-27T09:40:09.375Z,77.34
2019-04-27T09:41:09.869Z,77.53
2019-04-27T09:42:09.174Z,77.25
2019-04-27T09:43:07.871Z,76.96
2019-04-27T09:44:08.514Z,77.69
2019-04-27T09:45:09.282Z,79.13
2019-04-27T09:46:08.489Z,79.44
2019-04-27T09:47:09.808Z,79.24
2019-04-27T09:48:10.263Z,79.53
2019-04-27T09:49:07.856Z,79.53
2019-04-27T09:50:08.415Z,79.53
2019-04-27T09:51:09.134Z,80.11
2019-04-27T09:52:08.999Z,79.57
2019-04-27T09:53:09.066Z,78.75
2019-04-27T09:54:08.501Z,78.08
2019-04-27T09:55:11.051Z,77.21
2019-04-27T09:56:08.498Z,76.92
2019-04-27T09:57:09.693Z,76.54
2019-04-27T09:58:08.564Z,77.36
2019-04-27T09:59:09.067Z,78.8
2019-04-27T10:00:09.011Z,79.57
2019-04-27T10:01:09.309Z,78.77
2019-04-27T10:02:08.565Z,77.23
2019-04-27T10:03:09.261Z,78
2019-04-27T10:04:07.889Z,78.57
2019-04-27T10:05:08.675Z,79.63
2019-04-27T10:06:08.625Z,80.2
2019-04-27T10:07:08.853Z,80.87
2019-04-27T10:08:08.843Z,80.64
2019-04-27T10:09:09.235Z,80.93
2019-04-27T10:10:09.197Z,82.08
2019-04-27T10:11:08.652Z,81.6
2019-04-27T10:12:09.763Z,81.79
2019-04-27T10:13:09.735Z,82.62
2019-04-27T10:14:08.551Z,81.56
2019-04-27T10:15:08.868Z,82.32
2019-04-27T10:16:07.995Z,82.23
2019-04-27T10:17:07.997Z,80.51
2019-04-27T10:18:08.800Z,80.55
2019-04-27T10:19:07.909Z,80.35
2019-04-27T10:20:08.633Z,79.59
2019-04-27T10:21:09.089Z,79.59
2019-04-27T10:22:08.510Z,79.3
2019-04-27T10:23:08.982Z,80.35
2019-04-27T10:24:09.233Z,80.35
2019-04-27T10:25:07.928Z,79.97
2019-04-27T10:26:08.445Z,79.24
2019-04-27T10:27:10.153Z,78.44
2019-04-27T10:28:09.446Z,79.68
2019-04-27T10:29:08.875Z,79.21
2019-04-27T10:30:08.490Z,79.3
2019-04-27T10:31:09.676Z,80.03
2019-04-27T10:32:08.980Z,80.16
2019-04-27T10:33:10.501Z,79.26
2019-04-27T10:34:08.698Z,80.6
2019-04-27T10:35:10.037Z,82.23
2019-04-27T10:36:09.187Z,82.56
2019-04-27T10:37:08.782Z,82.71
2019-04-27T10:38:07.950Z,83.38
2019-04-27T10:39:08.387Z,81.98
2019-04-27T10:40:08.826Z,82.03
2019-04-27T10:41:10.447Z,79.47
2019-04-27T10:42:09.495Z,75.96
2019-04-27T10:43:08.934Z,74.04
2019-04-27T10:44:08.874Z,74.62
2019-04-27T10:45:09.158Z,76.29
2019-04-27T10:46:09.358Z,77.06
2019-04-27T10:47:08.586Z,75.87
2019-04-27T10:48:08.121Z,75.2
2019-04-27T10:49:08.579Z,74.23
2019-04-27T10:50:08.544Z,73.79
2019-04-27T10:51:09.921Z,73.37
2019-04-27T10:52:08.570Z,73.18
2019-04-27T10:53:09.607Z,72.02
2019-04-27T10:54:07.970Z,72.79
2019-04-27T10:55:08.696Z,72.41
2019-04-27T10:56:08.007Z,72.6
2019-04-27T10:57:08.757Z,72.34
2019-04-27T10:58:07.960Z,72.12
2019-04-27T10:59:09.871Z,72.25
2019-04-27T11:00:09.388Z,72.73
2019-04-27T11:01:08.270Z,74.13
2019-04-27T11:02:08.327Z,75.92
2019-04-27T11:03:09.282Z,77.42
2019-04-27T11:04:08.647Z,78.57
2019-04-27T11:05:09.494Z,79.57
2019-04-27T11:06:08.559Z,80.11
2019-04-27T11:07:08.332Z,80.73
2019-04-27T11:08:09.290Z,80.43
2019-04-27T11:09:08.680Z,80.78
2019-04-27T11:10:08.666Z,81.92
2019-04-27T11:11:07.964Z,81.82
2019-04-27T11:12:09.665Z,79.61
2019-04-27T11:13:08.941Z,79.71
2019-04-27T11:14:09.587Z,78.55
2019-04-27T11:15:08.737Z,78.32
2019-04-27T11:16:08.029Z,77.26
2019-04-27T11:17:08.953Z,78.52
2019-04-27T11:18:08.960Z,77.59
2019-04-27T11:19:09.297Z,76.73
2019-04-27T11:20:08.071Z,76.73
2019-04-27T11:21:08.450Z,76.21
2019-04-27T11:22:09.955Z,76.21
2019-04-27T11:23:16.211Z,76.98
2019-04-27T11:24:08.038Z,77.71
2019-04-27T11:25:08.923Z,78.42
2019-04-27T11:26:10.546Z,78.38
2019-04-27T11:27:08.553Z,79.14
2019-04-27T11:28:08.472Z,79.11
2019-04-27T11:29:08.013Z,79.78
2019-04-27T11:30:09.367Z,79.3
2019-04-27T11:31:08.040Z,79.88
2019-04-27T11:32:08.456Z,80.16
2019-04-27T11:33:08.953Z,80.07
2019-04-27T11:34:09.433Z,80.16
2019-04-27T11:35:08.460Z,79.97
2019-04-27T11:36:08.921Z,80.35
2019-04-27T11:37:08.225Z,79.93
2019-04-27T11:38:08.291Z,80.32
2019-04-27T11:39:08.031Z,80.22
2019-04-27T11:40:08.057Z,80.64
2019-04-27T11:41:08.024Z,80.83
2019-04-27T11:42:08.052Z,80.45
2019-04-27T11:43:08.695Z,80.74
2019-04-27T11:44:08.434Z,81.08
2019-04-27T11:45:09.304Z,80.99
2019-04-27T11:46:08.840Z,81.02
2019-04-27T11:47:08.681Z,81.08
2019-04-27T11:48:08.504Z,81.56
2019-04-27T11:49:09.396Z,81.27
2019-04-27T11:50:10.624Z,81.75
2019-04-27T11:51:11.045Z,82.42
2019-04-27T11:52:08.467Z,82.32
2019-04-27T11:53:19.638Z,83
2019-04-27T11:54:08.094Z,83.58
2019-04-27T11:55:08.434Z,83
2019-04-27T11:56:08.053Z,83.19
2019-04-27T11:57:08.073Z,83.38
2019-04-27T11:58:09.191Z,83.58
2019-04-27T11:59:09.706Z,83.09
2019-04-27T12:00:10.058Z,82.48
2019-04-27T12:01:09.683Z,83.48
2019-04-27T12:02:08.103Z,83.38
2019-04-27T12:03:09.424Z,82.71
2019-04-27T12:04:08.546Z,81.37
2019-04-27T12:05:10.509Z,79.82
2019-04-27T12:06:08.071Z,79.44
2019-04-27T12:07:09.410Z,78.52
2019-04-27T12:08:08.961Z,78.99
2019-04-27T12:09:08.089Z,78.17
2019-04-27T12:10:08.403Z,77.84
2019-04-27T12:11:08.616Z,78.52
2019-04-27T12:12:21.630Z,77.84
2019-04-27T12:13:10.289Z,77.84
2019-04-27T12:14:08.886Z,78.03
2019-04-27T12:15:08.465Z,77.56
2019-04-27T12:16:08.121Z,77.4
2019-04-27T12:17:09.012Z,77.11
2019-04-27T12:18:11.598Z,77.94
2019-04-27T12:19:09.249Z,77.71
2019-04-27T12:20:08.152Z,77.9
2019-04-27T12:21:08.772Z,77
2019-04-27T12:22:08.896Z,77.61
2019-04-27T12:23:09.256Z,77.9
2019-04-27T12:24:08.111Z,77.23
2019-04-27T12:25:09.245Z,75.4
2019-04-27T12:26:08.536Z,75.02
2019-04-27T12:27:08.601Z,75.65
2019-04-27T12:28:08.123Z,76.42
2019-04-27T12:29:08.906Z,75.95
2019-04-27T12:30:08.937Z,75.95
2019-04-27T12:31:11.556Z,75.75
2019-04-27T12:32:08.309Z,74.69
2019-04-27T12:33:08.129Z,74.79
2019-04-27T12:34:08.994Z,76.19
2019-04-27T12:35:09.437Z,78.97
2019-04-27T12:36:09.404Z,82.67
2019-04-27T12:37:09.945Z,85.79
2019-04-27T12:38:08.555Z,87.99
2019-04-27T12:39:08.211Z,89.9
2019-04-27T12:40:08.604Z,92.25
2019-04-27T12:41:09.431Z,93.4
2019-04-27T12:42:08.753Z,95.07
2019-04-27T12:43:08.125Z,94.7
2019-04-27T12:44:09.807Z,94.55
2019-04-27T12:45:08.189Z,94.65
2019-04-27T12:46:08.589Z,94.84
2019-04-27T12:47:08.918Z,95.61
2019-04-27T12:48:08.152Z,95.7
2019-04-27T12:49:08.589Z,95.12
2019-04-27T12:50:08.820Z,95.79
2019-04-27T12:51:08.150Z,96.56
2019-04-27T12:52:08.530Z,97.85
2019-04-27T12:53:08.247Z,97.71
2019-04-27T12:54:08.664Z,95.98
2019-04-27T12:55:08.153Z,93.65
2019-04-27T12:56:09.278Z,94.02